sensor_id;sensor_type;location;lat;lon;timestamp;P1;durP1;ratioP1;P2;durP2;ratioP2
7450;SDS011;3767;42.688;23.360;2022-12-04T00:01:59;9.93;;;6.63;;
7450;SDS011;3767;42.688;23.360;2022-12-04T00:04:27;10.03;;;6.77;;
7450;SDS011;3767;42.688;23.360;2022-12-04T00:06:53;9.83;;;6.70;;
7450;SDS011;3767;42.688;23.360;2022-12-04T00:09:20;8.67;;;6.73;;
7450;SDS011;3767;42.688;23.360;2022-12-04T00:11:47;9.30;;;6.57;;
7450;SDS011;3767;42.688;23.360;2022-12-04T00:14:14;7.50;;;5.53;;
7450;SDS011;3767;42.688;23.360;2022-12-04T00:16:40;10.00;;;6.60;;
7450;SDS011;3767;42.688;23.360;2022-12-04T00:19:07;9.53;;;6.10;;
7450;SDS011;3767;42.688;23.360;2022-12-04T00:21:34;8.67;;;5.40;;
7450;SDS011;3767;42.688;23.360;2022-12-04T00:24:01;7.40;;;5.60;;
7450;SDS011;3767;42.688;23.360;2022-12-04T00:26:28;8.07;;;5.80;;
7450;SDS011;3767;42.688;23.360;2022-12-04T00:28:55;7.57;;;5.83;;
7450;SDS011;3767;42.688;23.360;2022-12-04T00:31:23;7.57;;;5.77;;
7450;SDS011;3767;42.688;23.360;2022-12-04T00:33:50;8.83;;;6.17;;
7450;SDS011;3767;42.688;23.360;2022-12-04T00:36:17;9.03;;;6.40;;
7450;SDS011;3767;42.688;23.360;2022-12-04T00:38:45;7.97;;;5.90;;
7450;SDS011;3767;42.688;23.360;2022-12-04T00:41:13;7.90;;;5.87;;
7450;SDS011;3767;42.688;23.360;2022-12-04T00:43:40;8.60;;;6.10;;
7450;SDS011;3767;42.688;23.360;2022-12-04T00:46:06;7.33;;;5.97;;
7450;SDS011;3767;42.688;23.360;2022-12-04T00:48:33;8.03;;;5.90;;
7450;SDS011;3767;42.688;23.360;2022-12-04T00:51:00;8.03;;;5.20;;
7450;SDS011;3767;42.688;23.360;2022-12-04T00:53:26;6.30;;;5.23;;
7450;SDS011;3767;42.688;23.360;2022-12-04T00:55:54;8.50;;;5.67;;
7450;SDS011;3767;42.688;23.360;2022-12-04T00:58:21;5.73;;;5.13;;
7450;SDS011;3767;42.688;23.360;2022-12-04T01:00:47;5.97;;;5.23;;
7450;SDS011;3767;42.688;23.360;2022-12-04T01:03:14;5.80;;;5.20;;
7450;SDS011;3767;42.688;23.360;2022-12-04T01:05:41;5.60;;;4.80;;
7450;SDS011;3767;42.688;23.360;2022-12-04T01:08:09;5.50;;;4.60;;
7450;SDS011;3767;42.688;23.360;2022-12-04T01:10:36;5.40;;;4.80;;
7450;SDS011;3767;42.688;23.360;2022-12-04T01:13:04;5.03;;;4.53;;
7450;SDS011;3767;42.688;23.360;2022-12-04T01:15:31;6.20;;;5.20;;
7450;SDS011;3767;42.688;23.360;2022-12-04T01:17:57;5.83;;;4.87;;
7450;SDS011;3767;42.688;23.360;2022-12-04T01:20:24;6.73;;;4.97;;
7450;SDS011;3767;42.688;23.360;2022-12-04T01:22:50;4.70;;;4.20;;
7450;SDS011;3767;42.688;23.360;2022-12-04T01:25:17;5.60;;;5.00;;
7450;SDS011;3767;42.688;23.360;2022-12-04T01:27:43;4.90;;;4.30;;
7450;SDS011;3767;42.688;23.360;2022-12-04T01:30:12;5.13;;;4.60;;
7450;SDS011;3767;42.688;23.360;2022-12-04T01:32:38;5.00;;;4.50;;
7450;SDS011;3767;42.688;23.360;2022-12-04T01:35:05;5.37;;;4.40;;
7450;SDS011;3767;42.688;23.360;2022-12-04T01:37:31;4.87;;;4.37;;
7450;SDS011;3767;42.688;23.360;2022-12-04T01:39:58;5.43;;;4.17;;
7450;SDS011;3767;42.688;23.360;2022-12-04T01:42:24;4.60;;;4.20;;
7450;SDS011;3767;42.688;23.360;2022-12-04T01:47:43;4.30;;;3.90;;
7450;SDS011;3767;42.688;23.360;2022-12-04T01:50:09;5.13;;;4.30;;
7450;SDS011;3767;42.688;23.360;2022-12-04T01:52:36;4.27;;;3.90;;
7450;SDS011;3767;42.688;23.360;2022-12-04T01:55:02;3.87;;;3.57;;
7450;SDS011;3767;42.688;23.360;2022-12-04T01:57:30;4.23;;;3.93;;
7450;SDS011;3767;42.688;23.360;2022-12-04T01:59:58;4.13;;;3.83;;
7450;SDS011;3767;42.688;23.360;2022-12-04T02:02:27;5.43;;;4.10;;
7450;SDS011;3767;42.688;23.360;2022-12-04T02:04:56;4.50;;;3.90;;
7450;SDS011;3767;42.688;23.360;2022-12-04T02:07:22;3.97;;;3.50;;
7450;SDS011;3767;42.688;23.360;2022-12-04T02:09:49;3.90;;;3.60;;
7450;SDS011;3767;42.688;23.360;2022-12-04T02:12:21;4.20;;;3.80;;
7450;SDS011;3767;42.688;23.360;2022-12-04T02:14:51;4.20;;;3.90;;
7450;SDS011;3767;42.688;23.360;2022-12-04T02:17:21;4.00;;;3.70;;
7450;SDS011;3767;42.688;23.360;2022-12-04T02:19:52;4.13;;;3.67;;
7450;SDS011;3767;42.688;23.360;2022-12-04T02:22:28;3.90;;;3.50;;
7450;SDS011;3767;42.688;23.360;2022-12-04T02:24:56;3.77;;;3.47;;
7450;SDS011;3767;42.688;23.360;2022-12-04T02:27:29;3.93;;;3.63;;
7450;SDS011;3767;42.688;23.360;2022-12-04T02:30:00;4.47;;;3.70;;
7450;SDS011;3767;42.688;23.360;2022-12-04T02:32:30;3.53;;;3.33;;
7450;SDS011;3767;42.688;23.360;2022-12-04T02:35:00;3.93;;;3.63;;
7450;SDS011;3767;42.688;23.360;2022-12-04T02:37:29;3.80;;;3.50;;
7450;SDS011;3767;42.688;23.360;2022-12-04T02:39:58;3.93;;;3.63;;
7450;SDS011;3767;42.688;23.360;2022-12-04T02:42:27;3.93;;;3.50;;
7450;SDS011;3767;42.688;23.360;2022-12-04T02:44:57;4.37;;;3.97;;
7450;SDS011;3767;42.688;23.360;2022-12-04T02:47:26;4.10;;;3.80;;
7450;SDS011;3767;42.688;23.360;2022-12-04T02:49:53;3.83;;;3.47;;
7450;SDS011;3767;42.688;23.360;2022-12-04T02:52:21;3.23;;;3.03;;
7450;SDS011;3767;42.688;23.360;2022-12-04T02:54:50;3.53;;;3.23;;
7450;SDS011;3767;42.688;23.360;2022-12-04T02:57:18;3.37;;;3.17;;
7450;SDS011;3767;42.688;23.360;2022-12-04T02:59:46;3.60;;;3.30;;
7450;SDS011;3767;42.688;23.360;2022-12-04T03:02:19;3.30;;;3.03;;
7450;SDS011;3767;42.688;23.360;2022-12-04T03:04:48;3.40;;;3.20;;
7450;SDS011;3767;42.688;23.360;2022-12-04T03:07:16;3.13;;;2.90;;
7450;SDS011;3767;42.688;23.360;2022-12-04T03:09:44;3.10;;;2.90;;
7450;SDS011;3767;42.688;23.360;2022-12-04T03:12:13;3.20;;;3.00;;
7450;SDS011;3767;42.688;23.360;2022-12-04T03:14:40;3.30;;;3.10;;
7450;SDS011;3767;42.688;23.360;2022-12-04T03:17:09;4.30;;;3.90;;
7450;SDS011;3767;42.688;23.360;2022-12-04T03:19:38;3.23;;;3.00;;
7450;SDS011;3767;42.688;23.360;2022-12-04T03:22:08;3.83;;;3.07;;
7450;SDS011;3767;42.688;23.360;2022-12-04T03:24:37;3.27;;;2.93;;
7450;SDS011;3767;42.688;23.360;2022-12-04T03:27:08;3.03;;;2.83;;
7450;SDS011;3767;42.688;23.360;2022-12-04T03:29:38;3.37;;;3.10;;
7450;SDS011;3767;42.688;23.360;2022-12-04T03:32:06;3.17;;;2.90;;
7450;SDS011;3767;42.688;23.360;2022-12-04T03:34:37;3.53;;;3.23;;
7450;SDS011;3767;42.688;23.360;2022-12-04T03:37:06;3.43;;;3.23;;
7450;SDS011;3767;42.688;23.360;2022-12-04T03:39:35;3.60;;;3.30;;
7450;SDS011;3767;42.688;23.360;2022-12-04T03:42:05;3.57;;;3.27;;
7450;SDS011;3767;42.688;23.360;2022-12-04T03:44:34;3.40;;;3.10;;
7450;SDS011;3767;42.688;23.360;2022-12-04T03:47:03;3.40;;;3.10;;
7450;SDS011;3767;42.688;23.360;2022-12-04T03:49:35;3.30;;;3.10;;
7450;SDS011;3767;42.688;23.360;2022-12-04T03:52:03;2.60;;;2.50;;
7450;SDS011;3767;42.688;23.360;2022-12-04T03:54:33;3.53;;;3.27;;
7450;SDS011;3767;42.688;23.360;2022-12-04T03:57:04;3.63;;;2.90;;
7450;SDS011;3767;42.688;23.360;2022-12-04T03:59:33;3.30;;;3.00;;
7450;SDS011;3767;42.688;23.360;2022-12-04T04:02:01;3.00;;;2.80;;
7450;SDS011;3767;42.688;23.360;2022-12-04T04:04:30;2.83;;;2.63;;
7450;SDS011;3767;42.688;23.360;2022-12-04T04:07:00;3.57;;;2.87;;
7450;SDS011;3767;42.688;23.360;2022-12-04T04:09:28;3.30;;;3.00;;
7450;SDS011;3767;42.688;23.360;2022-12-04T04:11:57;3.07;;;2.87;;
7450;SDS011;3767;42.688;23.360;2022-12-04T04:14:27;2.47;;;2.27;;
7450;SDS011;3767;42.688;23.360;2022-12-04T04:17:15;3.13;;;2.87;;
7450;SDS011;3767;42.688;23.360;2022-12-04T04:20:02;2.70;;;2.50;;
7450;SDS011;3767;42.688;23.360;2022-12-04T04:22:47;2.70;;;2.60;;
7450;SDS011;3767;42.688;23.360;2022-12-04T04:25:31;4.10;;;3.80;;
7450;SDS011;3767;42.688;23.360;2022-12-04T04:27:59;2.90;;;2.70;;
7450;SDS011;3767;42.688;23.360;2022-12-04T04:30:27;2.93;;;2.73;;
7450;SDS011;3767;42.688;23.360;2022-12-04T04:32:55;5.10;;;4.67;;
7450;SDS011;3767;42.688;23.360;2022-12-04T04:35:24;9.20;;;7.70;;
7450;SDS011;3767;42.688;23.360;2022-12-04T04:37:55;17.80;;;12.23;;
7450;SDS011;3767;42.688;23.360;2022-12-04T04:40:23;17.60;;;12.60;;
7450;SDS011;3767;42.688;23.360;2022-12-04T04:42:53;16.90;;;11.97;;
7450;SDS011;3767;42.688;23.360;2022-12-04T04:45:22;11.10;;;8.87;;
7450;SDS011;3767;42.688;23.360;2022-12-04T04:47:53;9.00;;;7.00;;
7450;SDS011;3767;42.688;23.360;2022-12-04T04:50:21;10.43;;;7.70;;
7450;SDS011;3767;42.688;23.360;2022-12-04T04:52:48;7.70;;;6.27;;
7450;SDS011;3767;42.688;23.360;2022-12-04T04:55:15;6.73;;;5.77;;
7450;SDS011;3767;42.688;23.360;2022-12-04T04:57:42;4.80;;;4.40;;
7450;SDS011;3767;42.688;23.360;2022-12-04T05:00:10;4.87;;;3.90;;
7450;SDS011;3767;42.688;23.360;2022-12-04T05:02:37;4.30;;;4.00;;
7450;SDS011;3767;42.688;23.360;2022-12-04T05:05:05;4.00;;;3.60;;
7450;SDS011;3767;42.688;23.360;2022-12-04T05:07:32;4.07;;;3.70;;
7450;SDS011;3767;42.688;23.360;2022-12-04T05:09:58;4.00;;;3.60;;
7450;SDS011;3767;42.688;23.360;2022-12-04T05:12:25;4.00;;;3.60;;
7450;SDS011;3767;42.688;23.360;2022-12-04T05:14:51;3.93;;;3.63;;
7450;SDS011;3767;42.688;23.360;2022-12-04T05:17:18;4.40;;;4.00;;
7450;SDS011;3767;42.688;23.360;2022-12-04T05:19:44;4.30;;;3.90;;
7450;SDS011;3767;42.688;23.360;2022-12-04T05:22:22;4.97;;;4.10;;
7450;SDS011;3767;42.688;23.360;2022-12-04T05:24:49;5.97;;;4.90;;
7450;SDS011;3767;42.688;23.360;2022-12-04T05:27:16;6.43;;;4.93;;
7450;SDS011;3767;42.688;23.360;2022-12-04T05:29:42;4.77;;;4.00;;
7450;SDS011;3767;42.688;23.360;2022-12-04T05:32:09;4.50;;;4.10;;
7450;SDS011;3767;42.688;23.360;2022-12-04T05:34:35;4.97;;;4.47;;
7450;SDS011;3767;42.688;23.360;2022-12-04T05:37:02;5.20;;;4.70;;
7450;SDS011;3767;42.688;23.360;2022-12-04T05:39:30;5.80;;;4.67;;
7450;SDS011;3767;42.688;23.360;2022-12-04T05:41:56;4.77;;;4.27;;
7450;SDS011;3767;42.688;23.360;2022-12-04T05:44:22;5.43;;;4.53;;
7450;SDS011;3767;42.688;23.360;2022-12-04T05:46:49;5.67;;;4.83;;
7450;SDS011;3767;42.688;23.360;2022-12-04T05:49:15;5.63;;;4.30;;
7450;SDS011;3767;42.688;23.360;2022-12-04T05:51:42;4.60;;;4.20;;
7450;SDS011;3767;42.688;23.360;2022-12-04T05:54:09;4.67;;;4.10;;
7450;SDS011;3767;42.688;23.360;2022-12-04T05:56:37;5.10;;;4.60;;
7450;SDS011;3767;42.688;23.360;2022-12-04T05:59:03;4.53;;;4.07;;
7450;SDS011;3767;42.688;23.360;2022-12-04T06:01:30;6.03;;;3.93;;
7450;SDS011;3767;42.688;23.360;2022-12-04T06:03:56;4.20;;;3.77;;
7450;SDS011;3767;42.688;23.360;2022-12-04T06:06:23;4.43;;;4.03;;
7450;SDS011;3767;42.688;23.360;2022-12-04T06:08:50;4.87;;;4.20;;
7450;SDS011;3767;42.688;23.360;2022-12-04T06:11:19;4.07;;;3.67;;
7450;SDS011;3767;42.688;23.360;2022-12-04T06:13:47;4.10;;;3.60;;
7450;SDS011;3767;42.688;23.360;2022-12-04T06:16:13;4.17;;;3.77;;
7450;SDS011;3767;42.688;23.360;2022-12-04T06:18:40;4.43;;;3.50;;
7450;SDS011;3767;42.688;23.360;2022-12-04T06:21:07;4.63;;;4.00;;
7450;SDS011;3767;42.688;23.360;2022-12-04T06:23:33;5.27;;;3.93;;
7450;SDS011;3767;42.688;23.360;2022-12-04T06:26:03;5.20;;;3.73;;
7450;SDS011;3767;42.688;23.360;2022-12-04T06:28:29;4.00;;;3.60;;
7450;SDS011;3767;42.688;23.360;2022-12-04T06:31:00;4.27;;;3.87;;
7450;SDS011;3767;42.688;23.360;2022-12-04T06:33:27;3.83;;;3.53;;
7450;SDS011;3767;42.688;23.360;2022-12-04T06:35:57;4.23;;;3.83;;
7450;SDS011;3767;42.688;23.360;2022-12-04T06:38:24;3.83;;;3.43;;
7450;SDS011;3767;42.688;23.360;2022-12-04T06:40:50;4.50;;;4.10;;
7450;SDS011;3767;42.688;23.360;2022-12-04T06:43:17;4.77;;;4.27;;
7450;SDS011;3767;42.688;23.360;2022-12-04T06:45:43;5.30;;;4.73;;
7450;SDS011;3767;42.688;23.360;2022-12-04T06:48:11;4.93;;;4.27;;
7450;SDS011;3767;42.688;23.360;2022-12-04T06:50:38;5.37;;;4.30;;
7450;SDS011;3767;42.688;23.360;2022-12-04T06:53:04;5.70;;;4.80;;
7450;SDS011;3767;42.688;23.360;2022-12-04T06:55:30;5.53;;;4.50;;
7450;SDS011;3767;42.688;23.360;2022-12-04T06:57:57;4.97;;;4.30;;
7450;SDS011;3767;42.688;23.360;2022-12-04T07:00:23;5.83;;;4.60;;
7450;SDS011;3767;42.688;23.360;2022-12-04T07:02:50;5.03;;;4.53;;
7450;SDS011;3767;42.688;23.360;2022-12-04T07:05:18;4.73;;;4.30;;
7450;SDS011;3767;42.688;23.360;2022-12-04T07:07:44;5.73;;;4.77;;
7450;SDS011;3767;42.688;23.360;2022-12-04T07:10:11;6.40;;;5.10;;
7450;SDS011;3767;42.688;23.360;2022-12-04T07:12:37;4.90;;;4.30;;
7450;SDS011;3767;42.688;23.360;2022-12-04T07:15:04;5.97;;;5.23;;
7450;SDS011;3767;42.688;23.360;2022-12-04T07:17:31;7.77;;;5.70;;
7450;SDS011;3767;42.688;23.360;2022-12-04T07:19:57;5.40;;;4.90;;
7450;SDS011;3767;42.688;23.360;2022-12-04T07:22:25;5.17;;;4.53;;
7450;SDS011;3767;42.688;23.360;2022-12-04T07:24:54;5.07;;;3.90;;
7450;SDS011;3767;42.688;23.360;2022-12-04T07:27:21;3.73;;;3.43;;
7450;SDS011;3767;42.688;23.360;2022-12-04T07:29:50;4.30;;;3.90;;
7450;SDS011;3767;42.688;23.360;2022-12-04T07:32:16;7.27;;;3.70;;
7450;SDS011;3767;42.688;23.360;2022-12-04T07:34:43;3.70;;;3.40;;
7450;SDS011;3767;42.688;23.360;2022-12-04T07:37:09;3.53;;;3.07;;
7450;SDS011;3767;42.688;23.360;2022-12-04T07:39:37;3.87;;;3.43;;
7450;SDS011;3767;42.688;23.360;2022-12-04T07:42:03;4.27;;;3.93;;
7450;SDS011;3767;42.688;23.360;2022-12-04T07:44:30;4.13;;;3.57;;
7450;SDS011;3767;42.688;23.360;2022-12-04T07:46:57;4.67;;;3.87;;
7450;SDS011;3767;42.688;23.360;2022-12-04T07:49:23;3.93;;;3.53;;
7450;SDS011;3767;42.688;23.360;2022-12-04T07:51:50;3.53;;;3.23;;
7450;SDS011;3767;42.688;23.360;2022-12-04T07:54:16;3.90;;;3.60;;
7450;SDS011;3767;42.688;23.360;2022-12-04T07:56:44;3.83;;;3.40;;
7450;SDS011;3767;42.688;23.360;2022-12-04T07:59:10;7.03;;;3.70;;
7450;SDS011;3767;42.688;23.360;2022-12-04T08:01:37;4.93;;;3.90;;
7450;SDS011;3767;42.688;23.360;2022-12-04T08:04:03;4.30;;;3.90;;
7450;SDS011;3767;42.688;23.360;2022-12-04T08:06:31;7.87;;;4.97;;
7450;SDS011;3767;42.688;23.360;2022-12-04T08:08:58;4.67;;;4.27;;
7450;SDS011;3767;42.688;23.360;2022-12-04T08:11:25;4.80;;;4.40;;
7450;SDS011;3767;42.688;23.360;2022-12-04T08:13:54;4.40;;;4.00;;
7450;SDS011;3767;42.688;23.360;2022-12-04T08:16:20;3.50;;;3.20;;
7450;SDS011;3767;42.688;23.360;2022-12-04T08:18:47;3.93;;;3.53;;
7450;SDS011;3767;42.688;23.360;2022-12-04T08:21:14;3.33;;;2.70;;
7450;SDS011;3767;42.688;23.360;2022-12-04T08:23:41;3.40;;;3.10;;
7450;SDS011;3767;42.688;23.360;2022-12-04T08:26:09;3.60;;;3.30;;
7450;SDS011;3767;42.688;23.360;2022-12-04T08:28:36;5.17;;;4.07;;
7450;SDS011;3767;42.688;23.360;2022-12-04T08:31:04;4.50;;;3.83;;
7450;SDS011;3767;42.688;23.360;2022-12-04T08:33:31;5.30;;;4.30;;
7450;SDS011;3767;42.688;23.360;2022-12-04T08:35:58;3.53;;;3.23;;
7450;SDS011;3767;42.688;23.360;2022-12-04T08:38:25;4.00;;;3.43;;
7450;SDS011;3767;42.688;23.360;2022-12-04T08:40:51;4.37;;;3.53;;
7450;SDS011;3767;42.688;23.360;2022-12-04T08:43:18;4.47;;;3.77;;
7450;SDS011;3767;42.688;23.360;2022-12-04T08:45:52;7.23;;;3.60;;
7450;SDS011;3767;42.688;23.360;2022-12-04T08:48:20;4.03;;;3.63;;
7450;SDS011;3767;42.688;23.360;2022-12-04T08:50:47;3.50;;;3.20;;
7450;SDS011;3767;42.688;23.360;2022-12-04T08:53:13;4.40;;;4.00;;
7450;SDS011;3767;42.688;23.360;2022-12-04T08:55:40;4.30;;;3.90;;
7450;SDS011;3767;42.688;23.360;2022-12-04T08:58:09;4.27;;;3.87;;
7450;SDS011;3767;42.688;23.360;2022-12-04T09:00:36;4.37;;;3.97;;
7450;SDS011;3767;42.688;23.360;2022-12-04T09:03:03;4.60;;;3.90;;
7450;SDS011;3767;42.688;23.360;2022-12-04T09:05:32;11.87;;;6.93;;
7450;SDS011;3767;42.688;23.360;2022-12-04T09:07:58;4.20;;;3.80;;
7450;SDS011;3767;42.688;23.360;2022-12-04T09:10:25;6.60;;;4.93;;
7450;SDS011;3767;42.688;23.360;2022-12-04T09:12:52;4.27;;;3.70;;
7450;SDS011;3767;42.688;23.360;2022-12-04T09:15:18;4.90;;;4.30;;
7450;SDS011;3767;42.688;23.360;2022-12-04T09:17:45;5.40;;;3.87;;
7450;SDS011;3767;42.688;23.360;2022-12-04T09:20:11;4.40;;;4.00;;
7450;SDS011;3767;42.688;23.360;2022-12-04T09:22:40;4.67;;;3.97;;
7450;SDS011;3767;42.688;23.360;2022-12-04T09:25:06;6.20;;;4.60;;
7450;SDS011;3767;42.688;23.360;2022-12-04T09:27:34;27.03;;;14.30;;
7450;SDS011;3767;42.688;23.360;2022-12-04T09:30:01;6.53;;;4.77;;
7450;SDS011;3767;42.688;23.360;2022-12-04T09:32:28;6.60;;;5.10;;
7450;SDS011;3767;42.688;23.360;2022-12-04T09:34:54;6.43;;;5.37;;
7450;SDS011;3767;42.688;23.360;2022-12-04T09:37:21;10.63;;;5.83;;
7450;SDS011;3767;42.688;23.360;2022-12-04T09:39:48;10.50;;;5.53;;
7450;SDS011;3767;42.688;23.360;2022-12-04T09:42:21;7.17;;;5.33;;
7450;SDS011;3767;42.688;23.360;2022-12-04T09:44:52;5.90;;;4.93;;
7450;SDS011;3767;42.688;23.360;2022-12-04T09:47:24;6.30;;;4.83;;
7450;SDS011;3767;42.688;23.360;2022-12-04T09:49:53;5.77;;;4.77;;
7450;SDS011;3767;42.688;23.360;2022-12-04T09:52:24;6.13;;;4.87;;
7450;SDS011;3767;42.688;23.360;2022-12-04T09:54:53;4.90;;;4.50;;
7450;SDS011;3767;42.688;23.360;2022-12-04T09:57:21;5.87;;;4.17;;
7450;SDS011;3767;42.688;23.360;2022-12-04T09:59:49;5.13;;;4.47;;
7450;SDS011;3767;42.688;23.360;2022-12-04T10:02:19;6.30;;;5.20;;
7450;SDS011;3767;42.688;23.360;2022-12-04T10:04:50;6.73;;;5.23;;
7450;SDS011;3767;42.688;23.360;2022-12-04T10:07:17;8.27;;;5.30;;
7450;SDS011;3767;42.688;23.360;2022-12-04T10:09:47;9.60;;;5.73;;
7450;SDS011;3767;42.688;23.360;2022-12-04T10:12:17;6.40;;;5.00;;
7450;SDS011;3767;42.688;23.360;2022-12-04T10:14:52;5.97;;;5.20;;
7450;SDS011;3767;42.688;23.360;2022-12-04T10:17:31;8.73;;;5.70;;
7450;SDS011;3767;42.688;23.360;2022-12-04T10:19:59;10.17;;;6.40;;
7450;SDS011;3767;42.688;23.360;2022-12-04T10:22:28;6.07;;;4.73;;
7450;SDS011;3767;42.688;23.360;2022-12-04T10:24:56;7.67;;;4.73;;
7450;SDS011;3767;42.688;23.360;2022-12-04T10:27:28;6.67;;;4.97;;
7450;SDS011;3767;42.688;23.360;2022-12-04T10:29:57;6.77;;;5.07;;
7450;SDS011;3767;42.688;23.360;2022-12-04T10:32:24;8.53;;;5.30;;
7450;SDS011;3767;42.688;23.360;2022-12-04T10:34:53;7.07;;;5.23;;
7450;SDS011;3767;42.688;23.360;2022-12-04T10:37:20;5.63;;;4.83;;
7450;SDS011;3767;42.688;23.360;2022-12-04T10:39:50;4.93;;;4.43;;
7450;SDS011;3767;42.688;23.360;2022-12-04T10:42:30;5.67;;;4.83;;
7450;SDS011;3767;42.688;23.360;2022-12-04T10:44:58;5.83;;;4.67;;
7450;SDS011;3767;42.688;23.360;2022-12-04T10:47:25;8.20;;;5.30;;
7450;SDS011;3767;42.688;23.360;2022-12-04T10:49:55;8.53;;;4.77;;
7450;SDS011;3767;42.688;23.360;2022-12-04T10:52:24;7.47;;;5.47;;
7450;SDS011;3767;42.688;23.360;2022-12-04T10:54:52;5.27;;;4.53;;
7450;SDS011;3767;42.688;23.360;2022-12-04T10:57:20;7.77;;;5.07;;
7450;SDS011;3767;42.688;23.360;2022-12-04T10:59:49;6.37;;;4.83;;
7450;SDS011;3767;42.688;23.360;2022-12-04T11:02:19;6.03;;;4.80;;
7450;SDS011;3767;42.688;23.360;2022-12-04T11:04:50;5.67;;;4.87;;
7450;SDS011;3767;42.688;23.360;2022-12-04T11:07:19;8.47;;;4.53;;
7450;SDS011;3767;42.688;23.360;2022-12-04T11:09:53;5.27;;;4.73;;
7450;SDS011;3767;42.688;23.360;2022-12-04T11:12:20;5.87;;;4.97;;
7450;SDS011;3767;42.688;23.360;2022-12-04T11:14:59;6.43;;;5.70;;
7450;SDS011;3767;42.688;23.360;2022-12-04T11:17:26;5.00;;;4.53;;
7450;SDS011;3767;42.688;23.360;2022-12-04T11:20:00;6.83;;;4.13;;
7450;SDS011;3767;42.688;23.360;2022-12-04T11:22:28;4.83;;;4.33;;
7450;SDS011;3767;42.688;23.360;2022-12-04T11:24:56;4.20;;;3.80;;
7450;SDS011;3767;42.688;23.360;2022-12-04T11:27:24;4.87;;;4.23;;
7450;SDS011;3767;42.688;23.360;2022-12-04T11:29:52;3.80;;;3.50;;
7450;SDS011;3767;42.688;23.360;2022-12-04T11:32:21;4.37;;;3.97;;
7450;SDS011;3767;42.688;23.360;2022-12-04T11:34:50;5.27;;;3.70;;
7450;SDS011;3767;42.688;23.360;2022-12-04T11:37:18;4.50;;;4.10;;
7450;SDS011;3767;42.688;23.360;2022-12-04T11:39:47;4.63;;;3.97;;
7450;SDS011;3767;42.688;23.360;2022-12-04T11:42:15;4.00;;;3.70;;
7450;SDS011;3767;42.688;23.360;2022-12-04T11:44:48;4.33;;;4.00;;
7450;SDS011;3767;42.688;23.360;2022-12-04T11:47:16;5.20;;;3.70;;
7450;SDS011;3767;42.688;23.360;2022-12-04T11:49:55;5.60;;;4.30;;
7450;SDS011;3767;42.688;23.360;2022-12-04T11:52:27;4.27;;;3.87;;
7450;SDS011;3767;42.688;23.360;2022-12-04T11:55:00;3.87;;;3.57;;
7450;SDS011;3767;42.688;23.360;2022-12-04T11:57:29;3.97;;;3.67;;
7450;SDS011;3767;42.688;23.360;2022-12-04T12:00:02;4.80;;;4.40;;
7450;SDS011;3767;42.688;23.360;2022-12-04T12:02:34;7.00;;;5.37;;
7450;SDS011;3767;42.688;23.360;2022-12-04T12:05:07;5.80;;;4.43;;
7450;SDS011;3767;42.688;23.360;2022-12-04T12:07:37;5.17;;;4.67;;
7450;SDS011;3767;42.688;23.360;2022-12-04T12:10:09;9.40;;;6.37;;
7450;SDS011;3767;42.688;23.360;2022-12-04T12:12:41;8.80;;;5.40;;
7450;SDS011;3767;42.688;23.360;2022-12-04T12:15:15;5.83;;;5.23;;
7450;SDS011;3767;42.688;23.360;2022-12-04T12:17:46;6.10;;;5.10;;
7450;SDS011;3767;42.688;23.360;2022-12-04T12:20:18;5.37;;;4.87;;
7450;SDS011;3767;42.688;23.360;2022-12-04T12:25:37;5.90;;;5.30;;
7450;SDS011;3767;42.688;23.360;2022-12-04T12:28:11;6.80;;;5.20;;
7450;SDS011;3767;42.688;23.360;2022-12-04T12:30:41;6.33;;;5.30;;
7450;SDS011;3767;42.688;23.360;2022-12-04T12:33:13;6.80;;;5.63;;
7450;SDS011;3767;42.688;23.360;2022-12-04T12:35:44;6.73;;;5.90;;
7450;SDS011;3767;42.688;23.360;2022-12-04T12:38:13;12.47;;;5.20;;
7450;SDS011;3767;42.688;23.360;2022-12-04T12:40:43;6.27;;;5.50;;
7450;SDS011;3767;42.688;23.360;2022-12-04T12:43:12;7.50;;;5.93;;
7450;SDS011;3767;42.688;23.360;2022-12-04T12:45:42;9.20;;;6.30;;
7450;SDS011;3767;42.688;23.360;2022-12-04T12:48:15;7.20;;;5.83;;
7450;SDS011;3767;42.688;23.360;2022-12-04T12:50:48;7.20;;;5.90;;
7450;SDS011;3767;42.688;23.360;2022-12-04T12:53:17;6.90;;;5.90;;
7450;SDS011;3767;42.688;23.360;2022-12-04T12:55:46;7.20;;;6.00;;
7450;SDS011;3767;42.688;23.360;2022-12-04T12:58:16;6.93;;;5.23;;
7450;SDS011;3767;42.688;23.360;2022-12-04T13:00:45;10.40;;;6.50;;
7450;SDS011;3767;42.688;23.360;2022-12-04T13:03:19;6.43;;;5.73;;
7450;SDS011;3767;42.688;23.360;2022-12-04T13:05:50;9.80;;;6.63;;
7450;SDS011;3767;42.688;23.360;2022-12-04T13:08:22;10.23;;;6.90;;
7450;SDS011;3767;42.688;23.360;2022-12-04T13:10:52;10.07;;;7.27;;
7450;SDS011;3767;42.688;23.360;2022-12-04T13:13:24;10.03;;;6.70;;
7450;SDS011;3767;42.688;23.360;2022-12-04T13:15:54;8.33;;;6.57;;
7450;SDS011;3767;42.688;23.360;2022-12-04T13:18:23;10.47;;;7.03;;
7450;SDS011;3767;42.688;23.360;2022-12-04T13:20:55;9.67;;;6.40;;
7450;SDS011;3767;42.688;23.360;2022-12-04T13:23:30;12.97;;;7.23;;
7450;SDS011;3767;42.688;23.360;2022-12-04T13:26:03;7.57;;;6.23;;
7450;SDS011;3767;42.688;23.360;2022-12-04T13:28:37;8.43;;;5.93;;
7450;SDS011;3767;42.688;23.360;2022-12-04T13:31:11;6.43;;;5.67;;
7450;SDS011;3767;42.688;23.360;2022-12-04T13:33:53;7.50;;;6.17;;
7450;SDS011;3767;42.688;23.360;2022-12-04T13:36:31;8.80;;;6.27;;
7450;SDS011;3767;42.688;23.360;2022-12-04T13:39:23;8.73;;;6.60;;
7450;SDS011;3767;42.688;23.360;2022-12-04T13:42:04;6.93;;;5.50;;
7450;SDS011;3767;42.688;23.360;2022-12-04T13:44:32;5.73;;;5.23;;
7450;SDS011;3767;42.688;23.360;2022-12-04T13:47:01;5.20;;;4.70;;
7450;SDS011;3767;42.688;23.360;2022-12-04T13:49:31;6.43;;;5.47;;
7450;SDS011;3767;42.688;23.360;2022-12-04T13:52:02;5.67;;;5.17;;
7450;SDS011;3767;42.688;23.360;2022-12-04T13:54:31;6.40;;;5.13;;
7450;SDS011;3767;42.688;23.360;2022-12-04T13:59:41;7.27;;;5.30;;
7450;SDS011;3767;42.688;23.360;2022-12-04T14:02:22;5.37;;;4.87;;
7450;SDS011;3767;42.688;23.360;2022-12-04T14:04:52;6.80;;;5.03;;
7450;SDS011;3767;42.688;23.360;2022-12-04T14:07:24;7.83;;;4.97;;
7450;SDS011;3767;42.688;23.360;2022-12-04T14:09:52;6.30;;;5.10;;
7450;SDS011;3767;42.688;23.360;2022-12-04T14:12:24;5.60;;;5.00;;
7450;SDS011;3767;42.688;23.360;2022-12-04T14:14:53;8.87;;;5.83;;
7450;SDS011;3767;42.688;23.360;2022-12-04T14:17:23;8.20;;;6.30;;
7450;SDS011;3767;42.688;23.360;2022-12-04T14:19:51;9.87;;;5.70;;
7450;SDS011;3767;42.688;23.360;2022-12-04T14:22:28;5.93;;;5.20;;
7450;SDS011;3767;42.688;23.360;2022-12-04T14:25:04;7.37;;;5.57;;
7450;SDS011;3767;42.688;23.360;2022-12-04T14:27:32;7.63;;;5.63;;
7450;SDS011;3767;42.688;23.360;2022-12-04T14:30:00;8.23;;;5.70;;
7450;SDS011;3767;42.688;23.360;2022-12-04T14:32:29;7.07;;;5.37;;
7450;SDS011;3767;42.688;23.360;2022-12-04T14:34:57;8.37;;;5.27;;
7450;SDS011;3767;42.688;23.360;2022-12-04T14:37:25;8.37;;;5.83;;
7450;SDS011;3767;42.688;23.360;2022-12-04T14:39:54;9.03;;;6.10;;
7450;SDS011;3767;42.688;23.360;2022-12-04T14:42:22;7.23;;;5.53;;
7450;SDS011;3767;42.688;23.360;2022-12-04T14:44:51;16.43;;;9.20;;
7450;SDS011;3767;42.688;23.360;2022-12-04T14:47:19;16.87;;;9.10;;
7450;SDS011;3767;42.688;23.360;2022-12-04T14:49:52;14.57;;;8.00;;
7450;SDS011;3767;42.688;23.360;2022-12-04T14:52:24;15.07;;;7.27;;
7450;SDS011;3767;42.688;23.360;2022-12-04T14:54:55;12.03;;;7.27;;
7450;SDS011;3767;42.688;23.360;2022-12-04T14:57:34;14.10;;;7.97;;
7450;SDS011;3767;42.688;23.360;2022-12-04T15:00:05;10.83;;;6.80;;
7450;SDS011;3767;42.688;23.360;2022-12-04T15:02:40;11.37;;;6.10;;
7450;SDS011;3767;42.688;23.360;2022-12-04T15:05:08;12.53;;;7.27;;
7450;SDS011;3767;42.688;23.360;2022-12-04T15:07:35;9.20;;;6.30;;
7450;SDS011;3767;42.688;23.360;2022-12-04T15:10:15;10.37;;;7.67;;
7450;SDS011;3767;42.688;23.360;2022-12-04T15:12:59;11.43;;;6.70;;
7450;SDS011;3767;42.688;23.360;2022-12-04T15:15:26;13.80;;;7.87;;
7450;SDS011;3767;42.688;23.360;2022-12-04T15:17:57;11.73;;;7.40;;
7450;SDS011;3767;42.688;23.360;2022-12-04T15:20:24;9.80;;;6.83;;